createdAt,value
2023-03-22T00:04:21.504Z,85.60
2023-03-22T00:06:48.352Z,84.70
2023-03-22T00:09:15.734Z,85.30
2023-03-22T00:11:42.547Z,85.60
2023-03-22T00:14:09.805Z,85.40
2023-03-22T00:16:36.570Z,85.00
2023-03-22T00:19:03.409Z,85.50
2023-03-22T00:21:30.170Z,85.10
2023-03-22T00:23:56.886Z,85.00
2023-03-22T00:26:23.610Z,85.40
2023-03-22T00:28:50.399Z,85.40
2023-03-22T00:31:17.193Z,85.80
2023-03-22T00:33:44.011Z,85.60
2023-03-22T00:36:12.106Z,85.50
2023-03-22T00:38:43.964Z,85.90
2023-03-22T00:41:17.333Z,85.90
2023-03-22T00:43:45.590Z,86.30
2023-03-22T00:46:14.699Z,86.80
2023-03-22T00:48:43.252Z,86.40
2023-03-22T00:51:10.755Z,86.90
2023-03-22T00:53:39.324Z,86.60
2023-03-22T00:56:08.343Z,86.10
2023-03-22T00:58:35.786Z,86.70
2023-03-22T01:01:02.580Z,86.70
2023-03-22T01:03:29.428Z,86.80
2023-03-22T01:05:56.321Z,87.20
2023-03-22T01:08:24.415Z,86.90
2023-03-22T01:10:52.001Z,86.10
2023-03-22T01:13:18.744Z,87.40
2023-03-22T01:15:47.730Z,86.90
2023-03-22T01:18:14.881Z,86.80
2023-03-22T01:20:42.128Z,86.50
2023-03-22T01:23:09.144Z,86.80
2023-03-22T01:25:35.951Z,87.00
2023-03-22T01:28:02.767Z,86.70
2023-03-22T01:30:30.296Z,87.10
2023-03-22T01:32:57.229Z,87.20
2023-03-22T01:35:24.048Z,87.20
2023-03-22T01:37:50.862Z,87.20
2023-03-22T01:40:17.928Z,86.70
2023-03-22T01:42:44.890Z,87.30
2023-03-22T01:45:14.309Z,87.30
2023-03-22T01:47:53.282Z,88.30
2023-03-22T01:50:21.330Z,88.40
2023-03-22T01:52:50.909Z,87.30
2023-03-22T01:55:22.691Z,87.40
2023-03-22T01:57:50.809Z,87.30
2023-03-22T02:00:18.817Z,87.40
2023-03-22T02:02:51.258Z,87.40
2023-03-22T02:05:19.689Z,87.40
2023-03-22T02:07:46.646Z,87.40
2023-03-22T02:10:18.107Z,87.20
2023-03-22T02:13:34.122Z,87.40
2023-03-22T02:16:12.066Z,86.60
2023-03-22T02:19:17.057Z,87.40
2023-03-22T02:22:23.150Z,87.60
2023-03-22T02:25:20.546Z,86.80
2023-03-22T02:28:29.157Z,87.40
2023-03-22T02:31:27.973Z,86.90
2023-03-22T02:34:20.028Z,87.00
2023-03-22T02:37:07.531Z,86.70
2023-03-22T02:40:12.216Z,86.90
2023-03-22T02:43:09.282Z,87.10
2023-03-22T02:46:01.519Z,87.30
2023-03-22T02:48:49.291Z,87.40
2023-03-22T02:51:29.948Z,87.00
2023-03-22T02:54:34.284Z,87.20
2023-03-22T02:57:11.823Z,87.10
2023-03-22T02:59:41.766Z,87.10
2023-03-22T03:02:13.728Z,87.00
2023-03-22T03:04:47.821Z,87.20
2023-03-22T03:07:21.987Z,88.00
2023-03-22T03:09:50.331Z,87.20
2023-03-22T03:12:23.521Z,87.10
2023-03-22T03:14:50.428Z,87.40
2023-03-22T03:18:04.308Z,87.20
2023-03-22T03:21:00.264Z,87.80
2023-03-22T03:24:07.973Z,87.30
2023-03-22T03:27:27.386Z,87.40
2023-03-22T03:30:17.700Z,87.40
2023-03-22T03:32:54.503Z,86.90
2023-03-22T03:35:45.968Z,87.20
2023-03-22T03:38:20.416Z,87.00
2023-03-22T03:41:00.834Z,87.20
2023-03-22T03:43:28.048Z,87.40
2023-03-22T03:45:55.751Z,87.10
2023-03-22T03:48:28.459Z,87.10
2023-03-22T03:50:57.776Z,87.20
2023-03-22T03:53:24.790Z,87.10
2023-03-22T03:55:51.657Z,86.90
2023-03-22T03:58:18.431Z,86.50
2023-03-22T04:00:46.883Z,87.40
2023-03-22T04:03:14.371Z,87.10
2023-03-22T04:05:41.384Z,86.70
2023-03-22T04:08:08.917Z,87.30
2023-03-22T04:10:36.065Z,87.50
2023-03-22T04:13:02.791Z,87.60
2023-03-22T04:15:29.756Z,87.70
2023-03-22T04:17:56.723Z,87.90
2023-03-22T04:20:23.719Z,87.80
2023-03-22T04:22:50.517Z,87.70
2023-03-22T04:25:18.242Z,87.80
2023-03-22T04:27:50.952Z,87.80
2023-03-22T04:30:22.167Z,87.80
2023-03-22T04:32:49.890Z,87.10
2023-03-22T04:35:17.254Z,87.60
2023-03-22T04:37:45.758Z,87.60
2023-03-22T04:40:17.105Z,87.50
2023-03-22T04:42:45.538Z,87.50
2023-03-22T04:45:13.630Z,87.40
2023-03-22T04:47:40.756Z,87.30
2023-03-22T04:50:09.214Z,87.20
2023-03-22T04:52:36.151Z,87.30
2023-03-22T04:55:03.004Z,87.20
2023-03-22T04:57:30.750Z,87.30
2023-03-22T04:59:57.515Z,87.30
2023-03-22T05:02:24.330Z,87.30
2023-03-22T05:04:51.471Z,87.30
2023-03-22T05:07:18.257Z,87.30
2023-03-22T05:09:44.993Z,87.20
2023-03-22T05:12:12.309Z,87.20
2023-03-22T05:14:39.053Z,87.20
2023-03-22T05:17:05.874Z,87.20
2023-03-22T05:19:33.122Z,87.70
2023-03-22T05:22:01.909Z,87.10
2023-03-22T05:24:30.576Z,87.10
2023-03-22T05:27:00.992Z,87.10
2023-03-22T05:29:28.412Z,86.30
2023-03-22T05:31:55.405Z,86.90
2023-03-22T05:34:22.257Z,86.80
2023-03-22T05:36:51.474Z,86.70
2023-03-22T05:39:18.417Z,86.70
2023-03-22T05:41:46.038Z,86.10
2023-03-22T05:44:12.841Z,86.80
2023-03-22T05:46:39.629Z,86.60
2023-03-22T05:49:06.375Z,86.60
2023-03-22T05:51:33.133Z,86.50
2023-03-22T05:54:00.022Z,86.50
2023-03-22T05:56:26.784Z,86.50
2023-03-22T05:58:53.804Z,86.40
2023-03-22T06:01:21.449Z,86.30
2023-03-22T06:03:50.136Z,86.30
2023-03-22T06:06:17.029Z,86.30
2023-03-22T06:08:43.893Z,86.30
2023-03-22T06:11:10.904Z,86.20
2023-03-22T06:13:38.484Z,86.20
2023-03-22T06:16:05.993Z,86.20
2023-03-22T06:18:33.498Z,86.20
2023-03-22T06:21:00.851Z,86.10
2023-03-22T06:23:28.442Z,86.10
2023-03-22T06:25:55.470Z,85.50
2023-03-22T06:28:22.219Z,86.10
2023-03-22T06:30:49.021Z,86.00
2023-03-22T06:33:15.918Z,85.90
2023-03-22T06:35:42.805Z,85.90
2023-03-22T06:38:09.786Z,85.90
2023-03-22T06:40:36.951Z,85.90
2023-03-22T06:43:06.928Z,85.90
2023-03-22T06:45:33.768Z,85.70
2023-03-22T06:48:01.280Z,85.70
2023-03-22T06:50:29.242Z,85.90
2023-03-22T06:52:56.433Z,85.90
2023-03-22T06:55:25.018Z,85.80
2023-03-22T06:57:51.755Z,85.80
2023-03-22T07:00:19.007Z,85.70
2023-03-22T07:02:45.778Z,85.60
2023-03-22T07:05:12.542Z,85.60
2023-03-22T07:07:39.360Z,85.50
2023-03-22T07:10:08.013Z,85.40
2023-03-22T07:12:35.215Z,85.30
2023-03-22T07:15:02.905Z,85.30
2023-03-22T07:17:29.912Z,85.20
2023-03-22T07:19:56.897Z,85.20
2023-03-22T07:22:24.968Z,85.10
2023-03-22T07:24:57.283Z,85.10
2023-03-22T07:27:25.303Z,85.00
2023-03-22T07:29:52.258Z,84.70
2023-03-22T07:32:19.197Z,84.70
2023-03-22T07:34:46.398Z,84.60
2023-03-22T07:37:13.811Z,84.50
2023-03-22T07:39:40.567Z,84.50
2023-03-22T07:42:07.361Z,84.40
2023-03-22T07:44:34.127Z,84.30
2023-03-22T07:47:00.990Z,84.20
2023-03-22T07:49:28.234Z,83.90
2023-03-22T07:51:55.193Z,83.90
2023-03-22T07:54:32.991Z,83.60
2023-03-22T07:57:01.279Z,83.50
2023-03-22T07:59:28.064Z,83.20
2023-03-22T08:01:54.961Z,83.00
2023-03-22T08:04:22.542Z,82.80
2023-03-22T08:06:49.869Z,82.70
2023-03-22T08:09:17.303Z,82.50
2023-03-22T08:11:44.638Z,82.30
2023-03-22T08:14:11.600Z,82.10
2023-03-22T08:16:38.529Z,80.50
2023-03-22T08:19:05.660Z,81.60
2023-03-22T08:21:32.518Z,81.40
2023-03-22T08:23:59.266Z,81.30
2023-03-22T08:26:26.149Z,81.10
2023-03-22T08:28:53.182Z,80.90
2023-03-22T08:31:20.191Z,80.70
2023-03-22T08:33:47.315Z,80.50
2023-03-22T08:36:18.581Z,80.30
2023-03-22T08:38:45.567Z,80.00
2023-03-22T08:41:13.222Z,80.10
2023-03-22T08:43:40.251Z,79.90
2023-03-22T08:46:07.174Z,79.70
2023-03-22T08:48:35.858Z,79.60
2023-03-22T08:51:02.688Z,79.20
2023-03-22T08:53:29.583Z,78.10
2023-03-22T08:55:58.029Z,78.70
2023-03-22T09:01:14.066Z,77.30
2023-03-22T09:03:41.389Z,77.70
2023-03-22T09:06:11.764Z,77.40
2023-03-22T09:08:38.984Z,77.10
2023-03-22T09:11:09.676Z,76.40
2023-03-22T09:13:36.875Z,75.70
2023-03-22T09:16:09.866Z,76.20
2023-03-22T09:18:41.050Z,75.80
2023-03-22T09:21:09.072Z,75.40
2023-03-22T09:23:37.960Z,75.40
2023-03-22T09:26:08.517Z,75.30
2023-03-22T09:28:36.592Z,74.40
2023-03-22T09:31:09.996Z,74.50
2023-03-22T09:33:38.675Z,74.00
2023-03-22T09:36:05.916Z,74.20
2023-03-22T09:38:33.860Z,71.60
2023-03-22T09:41:11.016Z,73.90
2023-03-22T09:43:46.643Z,73.10
2023-03-22T09:46:29.987Z,72.50
2023-03-22T09:49:01.147Z,72.90
2023-03-22T09:51:42.401Z,72.80
2023-03-22T09:54:19.946Z,71.60
2023-03-22T09:57:34.750Z,71.60
2023-03-22T10:00:38.150Z,70.40
2023-03-22T10:04:03.307Z,70.60
2023-03-22T10:06:31.424Z,69.20
2023-03-22T10:09:54.813Z,70.50
2023-03-22T10:12:57.625Z,68.30
2023-03-22T10:15:43.164Z,68.90
2023-03-22T10:18:21.710Z,67.70
2023-03-22T10:21:11.341Z,68.30
2023-03-22T10:24:07.717Z,67.60
2023-03-22T10:26:42.151Z,66.30
2023-03-22T10:29:20.815Z,67.10
2023-03-22T10:31:47.635Z,66.90
2023-03-22T10:34:28.018Z,67.10
2023-03-22T10:36:55.894Z,65.80
2023-03-22T10:39:33.641Z,66.50
2023-03-22T10:42:18.902Z,66.00
2023-03-22T10:45:16.845Z,65.90
2023-03-22T10:48:08.017Z,64.60
2023-03-22T10:50:43.242Z,64.10
2023-03-22T10:53:40.650Z,64.70
2023-03-22T10:56:15.824Z,64.20
2023-03-22T10:58:43.236Z,64.00
2023-03-22T11:01:29.199Z,64.60
2023-03-22T11:04:17.283Z,62.50
2023-03-22T11:06:55.653Z,61.90
2023-03-22T11:09:24.766Z,62.70
2023-03-22T11:11:58.471Z,63.10
2023-03-22T11:14:32.326Z,62.60
2023-03-22T11:17:14.184Z,61.10
2023-03-22T11:19:52.686Z,61.60
2023-03-22T11:22:20.441Z,62.40
2023-03-22T11:24:47.604Z,62.50
2023-03-22T11:27:24.507Z,61.80
2023-03-22T11:30:21.113Z,60.90
2023-03-22T11:32:49.325Z,59.50
2023-03-22T11:35:27.107Z,61.20
2023-03-22T11:37:56.406Z,60.30
2023-03-22T11:40:36.591Z,60.80
2023-03-22T11:43:28.265Z,60.40
2023-03-22T11:45:58.022Z,59.80
2023-03-22T11:48:29.156Z,60.60
2023-03-22T11:51:07.123Z,60.40
2023-03-22T11:53:38.823Z,59.70
2023-03-22T11:56:09.766Z,59.60
2023-03-22T11:58:42.637Z,59.30
2023-03-22T12:01:21.606Z,59.10
2023-03-22T12:03:56.635Z,58.90
2023-03-22T12:06:29.252Z,58.80
2023-03-22T12:09:10.655Z,58.80
2023-03-22T12:11:46.582Z,58.20
2023-03-22T12:14:29.474Z,58.10
2023-03-22T12:17:10.768Z,57.00
2023-03-22T12:19:55.211Z,58.60
2023-03-22T12:22:32.043Z,58.20
2023-03-22T12:25:02.656Z,58.20
2023-03-22T12:27:41.594Z,58.50
2023-03-22T12:30:21.124Z,57.60
2023-03-22T12:32:59.713Z,57.50
2023-03-22T12:35:33.139Z,58.20
2023-03-22T12:38:16.756Z,58.10
2023-03-22T12:40:44.371Z,57.90
2023-03-22T12:43:23.977Z,58.10
2023-03-22T12:45:59.006Z,57.80
2023-03-22T12:48:49.017Z,58.00
2023-03-22T12:51:15.981Z,58.10
2023-03-22T12:53:54.564Z,57.50
2023-03-22T12:56:33.247Z,57.70
2023-03-22T12:59:05.945Z,57.80
2023-03-22T13:01:52.244Z,58.10
2023-03-22T13:04:37.322Z,57.90
2023-03-22T13:07:30.496Z,57.20
2023-03-22T13:10:00.234Z,57.90
2023-03-22T13:12:32.117Z,58.30
2023-03-22T13:15:02.078Z,58.10
2023-03-22T13:17:28.805Z,56.50
2023-03-22T13:19:59.734Z,58.00
2023-03-22T13:22:50.997Z,58.00
2023-03-22T13:25:19.469Z,57.60
2023-03-22T13:27:46.185Z,57.70
2023-03-22T13:30:27.101Z,57.40
2023-03-22T13:33:11.135Z,56.40
2023-03-22T13:35:52.746Z,56.20
2023-03-22T13:38:29.775Z,56.50
2023-03-22T13:41:21.847Z,56.60
2023-03-22T13:43:58.118Z,56.40
2023-03-22T13:46:37.039Z,56.70
2023-03-22T13:49:04.218Z,56.60
2023-03-22T13:51:34.208Z,56.90
2023-03-22T13:54:18.942Z,56.30
2023-03-22T13:56:59.506Z,56.00
2023-03-22T13:59:27.294Z,56.40
2023-03-22T14:02:04.976Z,56.40
2023-03-22T14:04:45.886Z,55.80
2023-03-22T14:07:37.253Z,55.50
2023-03-22T14:10:08.026Z,55.50
2023-03-22T14:13:02.326Z,56.10
2023-03-22T14:15:34.063Z,55.20
2023-03-22T14:18:23.066Z,55.30
2023-03-22T14:20:57.957Z,56.60
